sensor_id;sensor_type;location;lat;lon;timestamp;pressure;altitude;pressure_sealevel;temperature;humidity
50650;BME280;36621;60.058;30.346;2022-11-15T04:15:24;101124.66;;;3.64;69.38
50650;BME280;36621;60.058;30.346;2022-11-15T04:23:16;101092.81;;;3.41;70.19
50650;BME280;36621;60.058;30.346;2022-11-15T04:31:27;101080.75;;;3.44;69.84
50650;BME280;36621;60.058;30.346;2022-11-15T04:39:18;101108.47;;;3.58;70.19
50650;BME280;36621;60.058;30.346;2022-11-15T04:47:10;101083.25;;;3.45;70.04
50650;BME280;36621;60.058;30.346;2022-11-15T04:55:00;101067.38;;;3.24;70.40
50650;BME280;36621;60.058;30.346;2022-11-15T05:02:53;101071.47;;;3.33;70.30
50650;BME280;36621;60.058;30.346;2022-11-15T05:11:02;101087.78;;;3.45;70.22
50650;BME280;36621;60.058;30.346;2022-11-15T05:18:54;101075.97;;;3.46;70.69
50650;BME280;36621;60.058;30.346;2022-11-15T05:26:45;101042.22;;;3.23;70.52
50650;BME280;36621;60.058;30.346;2022-11-15T05:34:40;100933.63;;;2.64;70.62
50650;BME280;36621;60.058;30.346;2022-11-15T05:42:32;100972.38;;;2.70;70.74
50650;BME280;36621;60.058;30.346;2022-11-15T05:59:20;101087.06;;;3.31;71.30
50650;BME280;36621;60.058;30.346;2022-11-15T17:19:17;101480.66;;;4.08;71.92
50650;BME280;36621;60.058;30.346;2022-11-15T17:34:41;101415.06;;;3.60;69.88
50650;BME280;36621;60.058;30.346;2022-11-15T17:42:33;101477.16;;;3.80;71.69
50650;BME280;36621;60.058;30.346;2022-11-15T17:58:04;101470.28;;;3.91;71.15
50650;BME280;36621;60.058;30.346;2022-11-15T18:05:58;101526.31;;;4.43;71.25
50650;BME280;36621;60.058;30.346;2022-11-15T18:13:32;101442.06;;;3.60;71.40
50650;BME280;36621;60.058;30.346;2022-11-15T18:21:09;101467.56;;;3.91;71.12
50650;BME280;36621;60.058;30.346;2022-11-15T18:28:44;101499.34;;;4.23;71.08
50650;BME280;36621;60.058;30.346;2022-11-15T18:36:39;101483.31;;;4.21;70.77
50650;BME280;36621;60.058;30.346;2022-11-15T18:44:13;101526.34;;;4.29;71.31
50650;BME280;36621;60.058;30.346;2022-11-15T18:51:46;101468.22;;;3.87;71.56
50650;BME280;36621;60.058;30.346;2022-11-15T18:59:19;101533.66;;;4.22;71.08
50650;BME280;36621;60.058;30.346;2022-11-15T19:06:56;101536.69;;;4.52;70.96
50650;BME280;36621;60.058;30.346;2022-11-15T19:15:17;101545.41;;;4.61;71.46
50650;BME280;36621;60.058;30.346;2022-11-15T19:22:59;101555.88;;;4.31;71.33
50650;BME280;36621;60.058;30.346;2022-11-15T19:30:32;101548.66;;;4.05;71.90
50650;BME280;36621;60.058;30.346;2022-11-15T19:38:13;101510.84;;;3.64;71.96
50650;BME280;36621;60.058;30.346;2022-11-15T19:45:51;101569.66;;;3.96;72.78
50650;BME280;36621;60.058;30.346;2022-11-15T19:53:28;101526.41;;;3.56;73.02
50650;BME280;36621;60.058;30.346;2022-11-15T20:01:01;101586.88;;;3.81;72.04
50650;BME280;36621;60.058;30.346;2022-11-15T20:08:37;101567.53;;;3.78;72.26
50650;BME280;36621;60.058;30.346;2022-11-15T20:16:14;101511.44;;;3.53;72.68
50650;BME280;36621;60.058;30.346;2022-11-15T20:23:48;101574.63;;;3.92;72.14
50650;BME280;36621;60.058;30.346;2022-11-15T20:31:21;101556.31;;;3.81;71.68
50650;BME280;36621;60.058;30.346;2022-11-15T20:38:56;101540.13;;;3.81;71.71
50650;BME280;36621;60.058;30.346;2022-11-15T20:46:29;101562.38;;;3.83;71.73
50650;BME280;36621;60.058;30.346;2022-11-15T20:54:05;101574.41;;;3.80;72.22
50650;BME280;36621;60.058;30.346;2022-11-15T21:01:39;101546.34;;;3.68;71.99
50650;BME280;36621;60.058;30.346;2022-11-15T21:09:12;101583.56;;;3.86;71.43
50650;BME280;36621;60.058;30.346;2022-11-15T21:17:02;101551.69;;;3.28;72.71
50650;BME280;36621;60.058;30.346;2022-11-15T21:24:35;101514.28;;;3.11;73.17
50650;BME280;36621;60.058;30.346;2022-11-15T21:32:08;101580.81;;;3.59;72.34
50650;BME280;36621;60.058;30.346;2022-11-15T21:39:41;101581.25;;;3.70;71.45
50650;BME280;36621;60.058;30.346;2022-11-15T21:47:14;101614.50;;;3.77;71.77
50650;BME280;36621;60.058;30.346;2022-11-15T21:54:48;101614.28;;;3.58;71.83
50650;BME280;36621;60.058;30.346;2022-11-15T22:02:20;101600.72;;;3.45;70.66
50650;BME280;36621;60.058;30.346;2022-11-15T22:09:53;101611.53;;;3.38;71.91
50650;BME280;36621;60.058;30.346;2022-11-15T22:17:25;101542.56;;;2.74;70.47
50650;BME280;36621;60.058;30.346;2022-11-15T22:25:18;101609.00;;;3.30;71.51
50650;BME280;36621;60.058;30.346;2022-11-15T22:32:50;101615.13;;;3.04;70.43
50650;BME280;36621;60.058;30.346;2022-11-15T22:40:23;101622.97;;;2.99;70.94
50650;BME280;36621;60.058;30.346;2022-11-15T22:47:55;101622.16;;;2.98;70.74
50650;BME280;36621;60.058;30.346;2022-11-15T22:55:28;101611.72;;;2.88;70.24
50650;BME280;36621;60.058;30.346;2022-11-15T23:03:00;101613.69;;;2.66;70.67
50650;BME280;36621;60.058;30.346;2022-11-15T23:10:33;101641.56;;;2.80;70.41
50650;BME280;36621;60.058;30.346;2022-11-15T23:18:23;101650.91;;;2.49;70.69
50650;BME280;36621;60.058;30.346;2022-11-15T23:25:59;101651.16;;;2.54;71.01
50650;BME280;36621;60.058;30.346;2022-11-15T23:33:31;101631.34;;;2.40;70.58
50650;BME280;36621;60.058;30.346;2022-11-15T23:41:24;101625.38;;;2.17;70.13
50650;BME280;36621;60.058;30.346;2022-11-15T23:48:56;101587.63;;;1.88;70.58
50650;BME280;36621;60.058;30.346;2022-11-15T23:56:29;101549.63;;;1.77;70.82
